Time;durP1;ratioP1;P1;durP2;ratioP2;P2;SDS_P1;SDS_P2;PMS_P1;PMS_P2;Temp;Humidity;BMP_temperature;BMP_pressure;BME280_temperature;BME280_humidity;BME280_pressure;Samples;Min_cycle;Max_cycle;Signal;HPM_P1;HPM_P2
2021/04/05 00:01:08;;;;;;;20.77;10.47;;;5.20;66.00;;;;;;4988310;28;20188;-68
2021/04/05 00:03:34;;;;;;;15.77;9.17;;;5.20;65.80;;;;;;4996642;28;20745;-69
2021/04/05 00:06:00;;;;;;;19.33;8.90;;;5.10;66.20;;;;;;4992038;28;20271;-69
2021/04/05 00:08:25;;;;;;;18.60;9.13;;;5.10;66.60;;;;;;4988855;28;20188;-68
2021/04/05 00:10:53;;;;;;;21.27;9.83;;;5.00;66.80;;;;;;4990905;28;20188;-68
2021/04/05 00:13:35;;;;;;;19.93;10.40;;;5.00;67.30;;;;;;4991030;28;20200;-68
2021/04/05 00:16:01;;;;;;;19.37;9.30;;;4.90;67.70;;;;;;4980693;28;20664;-68
2021/04/05 00:18:27;;;;;;;17.30;10.33;;;4.90;67.70;;;;;;4988441;28;20213;-68
2021/04/05 00:20:56;;;;;;;18.90;10.20;;;4.90;68.10;;;;;;4987353;28;20275;-68
2021/04/05 00:23:22;;;;;;;19.60;9.43;;;4.90;67.80;;;;;;5009310;28;20192;-68
2021/04/05 00:25:48;;;;;;;15.73;8.60;;;4.80;68.20;;;;;;4989785;28;20195;-68
2021/04/05 00:28:14;;;;;;;15.50;8.73;;;4.80;68.50;;;;;;4996255;28;20232;-68
2021/04/05 00:30:41;;;;;;;20.53;11.30;;;4.80;68.50;;;;;;4990700;28;20197;-68
2021/04/05 00:33:07;;;;;;;15.37;8.47;;;4.80;68.50;;;;;;4994444;28;20193;-69
2021/04/05 00:35:35;;;;;;;18.20;8.90;;;4.70;68.40;;;;;;4988646;28;20193;-69
2021/04/05 00:38:04;;;;;;;15.00;8.57;;;4.70;68.60;;;;;;4989889;28;20188;-68
2021/04/05 00:40:34;;;;;;;16.07;9.73;;;4.70;68.80;;;;;;4989385;28;20192;-69
2021/04/05 00:43:02;;;;;;;14.50;8.83;;;4.70;69.10;;;;;;4989847;28;20199;-68
2021/04/05 00:45:29;;;;;;;18.13;10.53;;;4.70;69.10;;;;;;4986401;28;20629;-68
2021/04/05 00:47:55;;;;;;;20.00;9.30;;;4.60;69.40;;;;;;4990614;28;20188;-68
2021/04/05 00:50:43;;;;;;;19.23;9.90;;;4.50;69.50;;;;;;4991663;28;20191;-68
2021/04/05 00:53:10;;;;;;;13.23;9.00;;;4.50;70.10;;;;;;4987524;28;20198;-68
2021/04/05 00:55:38;;;;;;;16.20;8.07;;;4.50;69.60;;;;;;4983456;28;20232;-68
2021/04/05 00:58:04;;;;;;;14.20;8.70;;;4.50;70.30;;;;;;4995349;28;20291;-68
2021/04/05 01:00:42;;;;;;;16.63;9.37;;;4.50;70.40;;;;;;4993994;28;20631;-68
2021/04/05 01:03:14;;;;;;;17.90;8.47;;;4.50;70.20;;;;;;4993218;28;20204;-67
2021/04/05 01:05:40;;;;;;;11.13;7.53;;;4.40;70.10;;;;;;4975027;28;20225;-68
2021/04/05 01:08:10;;;;;;;18.93;8.83;;;4.40;70.30;;;;;;4992375;28;20196;-68
2021/04/05 01:10:36;;;;;;;19.17;9.10;;;4.30;70.70;;;;;;4982811;28;20189;-68
2021/04/05 01:13:01;;;;;;;16.70;8.70;;;4.20;70.90;;;;;;4996052;28;20685;-68
2021/04/05 01:15:27;;;;;;;14.80;7.90;;;4.20;71.30;;;;;;4990497;28;20212;-68
2021/04/05 01:17:53;;;;;;;20.53;9.63;;;4.20;71.70;;;;;;4986583;28;20207;-69
2021/04/05 01:20:20;;;;;;;12.57;7.57;;;4.10;72.10;;;;;;4978395;28;20188;-68
2021/04/05 01:22:47;;;;;;;15.90;9.03;;;4.10;72.30;;;;;;4989711;28;20247;-68
2021/04/05 01:25:15;;;;;;;15.30;8.83;;;4.10;72.80;;;;;;4991836;28;20305;-68
2021/04/05 01:27:42;;;;;;;13.23;7.80;;;4.10;73.10;;;;;;5006535;28;20191;-68
2021/04/05 01:30:27;;;;;;;17.83;8.77;;;4.00;73.40;;;;;;4989089;28;20192;-69
2021/04/05 01:33:23;;;;;;;15.57;8.07;;;4.00;73.70;;;;;;4992884;28;20192;-68
2021/04/05 01:35:54;;;;;;;14.13;8.27;;;4.00;73.80;;;;;;4993161;28;20192;-69
2021/04/05 01:38:28;;;;;;;12.97;7.93;;;4.00;73.80;;;;;;4987655;28;20219;-68
2021/04/05 01:41:09;;;;;;;14.77;8.17;;;4.00;74.00;;;;;;4995988;28;20195;-68
2021/04/05 01:43:35;;;;;;;14.23;8.33;;;4.00;73.80;;;;;;4992738;28;20231;-68
2021/04/05 01:46:05;;;;;;;17.70;9.53;;;4.00;73.80;;;;;;4985773;28;20197;-68
2021/04/05 01:48:32;;;;;;;18.33;9.03;;;4.00;73.80;;;;;;4985387;28;20668;-69
2021/04/05 01:51:01;;;;;;;17.77;9.00;;;4.00;73.70;;;;;;4985914;28;20257;-68
2021/04/05 01:53:27;;;;;;;17.27;8.53;;;4.00;73.80;;;;;;4987623;28;20203;-68
2021/04/05 01:55:53;;;;;;;21.53;9.20;;;3.90;73.80;;;;;;4994998;28;20209;-68
2021/04/05 01:58:20;;;;;;;18.53;8.90;;;3.90;73.80;;;;;;4989497;28;20192;-69
2021/04/05 02:00:48;;;;;;;12.70;7.93;;;3.90;74.00;;;;;;4988514;28;20188;-68
2021/04/05 02:03:14;;;;;;;10.20;7.33;;;3.90;74.20;;;;;;4989943;28;20204;-68
2021/04/05 02:06:00;;;;;;;12.93;8.63;;;3.90;74.60;;;;;;4992015;28;20208;-68
2021/04/05 02:08:27;;;;;;;13.10;7.77;;;3.90;74.30;;;;;;4992161;28;20235;-68
2021/04/05 02:10:56;;;;;;;15.40;9.03;;;4.00;74.50;;;;;;4988219;28;20195;-69
2021/04/05 02:13:23;;;;;;;10.97;7.80;;;4.00;74.60;;;;;;4989256;28;20191;-68
2021/04/05 02:15:50;;;;;;;17.50;9.73;;;4.00;74.90;;;;;;4976630;28;20223;-68
2021/04/05 02:18:17;;;;;;;16.90;8.40;;;4.10;75.20;;;;;;4996081;28;20192;-68
2021/04/05 02:20:45;;;;;;;19.43;9.87;;;4.00;75.40;;;;;;4980851;28;20195;-68
2021/04/05 02:23:12;;;;;;;17.47;8.80;;;4.00;75.60;;;;;;4993634;28;20188;-69
2021/04/05 02:26:05;;;;;;;15.73;8.23;;;4.00;75.60;;;;;;4998051;28;20599;-68
2021/04/05 02:28:27;;;;;;;18.03;9.57;;;4.00;76.10;;;;;;4992090;28;20200;-68
2021/04/05 02:30:53;;;;;;;15.10;7.57;;;4.20;76.30;;;;;;4990853;28;20204;-68
2021/04/05 02:33:19;;;;;;;20.23;8.57;;;4.10;76.20;;;;;;4996011;28;20196;-68
2021/04/05 02:35:44;;;;;;;17.43;8.57;;;4.10;76.20;;;;;;4990159;28;20294;-68
2021/04/05 02:38:11;;;;;;;19.00;10.53;;;4.00;76.20;;;;;;4993048;28;20200;-68
2021/04/05 02:40:37;;;;;;;22.83;10.17;;;4.00;76.20;;;;;;4993556;28;20586;-68
2021/04/05 02:43:03;;;;;;;18.03;8.67;;;3.90;76.50;;;;;;4993202;28;20198;-68
2021/04/05 02:45:29;;;;;;;13.63;8.07;;;4.10;77.10;;;;;;4996017;28;20235;-68
2021/04/05 02:47:58;;;;;;;10.07;7.47;;;4.10;77.30;;;;;;4988513;28;20191;-68
2021/04/05 02:50:29;;;;;;;12.43;7.17;;;3.90;77.60;;;;;;4992391;28;20204;-68
2021/04/05 02:52:57;;;;;;;15.20;9.10;;;3.90;77.80;;;;;;4996600;28;20195;-68
2021/04/05 02:55:23;;;;;;;14.67;8.37;;;3.80;77.50;;;;;;4994237;28;20293;-68
2021/04/05 02:57:50;;;;;;;20.40;7.73;;;3.80;78.00;;;;;;4989765;28;20539;-68
2021/04/05 03:00:18;;;;;;;12.33;6.80;;;3.80;77.90;;;;;;4975393;28;20243;-68
2021/04/05 03:02:47;;;;;;;13.23;8.17;;;3.80;77.80;;;;;;4991822;28;20648;-68
2021/04/05 03:05:15;;;;;;;12.83;8.20;;;3.80;78.30;;;;;;4995323;28;20224;-68
2021/04/05 03:07:42;;;;;;;12.93;8.57;;;3.80;78.50;;;;;;4980465;28;20628;-68
2021/04/05 03:10:10;;;;;;;16.83;8.97;;;3.70;79.00;;;;;;4996090;28;20220;-68
2021/04/05 03:12:38;;;;;;;14.43;7.50;;;3.80;79.10;;;;;;4994158;28;20187;-68
2021/04/05 03:15:12;;;;;;;19.57;8.93;;;3.80;79.50;;;;;;4994497;28;20192;-68
2021/04/05 03:17:39;;;;;;;17.77;9.07;;;3.80;79.10;;;;;;4985953;28;20247;-68
2021/04/05 03:20:08;;;;;;;14.20;9.23;;;3.90;79.10;;;;;;4994697;28;20555;-68
2021/04/05 03:22:38;;;;;;;17.00;8.83;;;3.90;79.10;;;;;;4977864;28;20284;-69
2021/04/05 03:25:04;;;;;;;14.90;9.43;;;3.90;78.80;;;;;;4986698;28;20217;-68
2021/04/05 03:27:29;;;;;;;18.17;9.07;;;3.90;79.10;;;;;;5001802;28;20184;-68
2021/04/05 03:29:58;;;;;;;20.70;7.97;;;4.00;79.00;;;;;;4986619;28;20188;-68
2021/04/05 03:32:25;;;;;;;12.87;6.57;;;3.90;79.10;;;;;;5006868;28;20557;-68
2021/04/05 03:34:59;;;;;;;10.53;6.77;;;4.00;78.90;;;;;;4995327;28;20219;-68
2021/04/05 03:37:27;;;;;;;15.03;8.53;;;4.00;78.50;;;;;;4991562;28;20228;-69
2021/04/05 03:39:53;;;;;;;16.90;9.10;;;4.00;78.50;;;;;;4995479;28;20188;-68
2021/04/05 03:42:33;;;;;;;11.50;7.27;;;4.00;78.40;;;;;;4993123;28;20250;-68
2021/04/05 03:45:03;;;;;;;17.57;8.33;;;3.90;78.40;;;;;;4992555;28;20687;-69
2021/04/05 03:47:34;;;;;;;17.23;8.50;;;3.90;78.20;;;;;;4991505;28;20603;-69
2021/04/05 03:50:25;;;;;;;14.20;7.47;;;3.90;78.30;;;;;;4995154;28;20291;-69
2021/04/05 03:53:10;;;;;;;13.23;7.80;;;3.90;77.40;;;;;;4991790;28;20370;-68
2021/04/05 03:55:38;;;;;;;10.77;6.67;;;3.80;76.70;;;;;;4982468;28;20254;-68
2021/04/05 03:58:04;;;;;;;15.80;7.33;;;3.90;77.30;;;;;;4985330;28;20196;-69
2021/04/05 04:00:31;;;;;;;16.23;6.93;;;3.80;77.00;;;;;;4986846;28;20275;-69
2021/04/05 04:03:00;;;;;;;10.83;8.27;;;3.80;76.70;;;;;;4991444;28;20210;-68
2021/04/05 04:08:15;;;;;;;11.97;7.20;;;3.80;76.70;;;;;;4982503;28;20201;-69
2021/04/05 04:10:48;;;;;;;15.23;7.43;;;3.90;76.70;;;;;;4997366;28;20188;-69
2021/04/05 04:13:16;;;;;;;12.47;6.60;;;3.80;76.60;;;;;;4995904;28;20411;-69
2021/04/05 04:15:42;;;;;;;12.20;6.40;;;3.80;76.70;;;;;;4992461;28;20192;-69
2021/04/05 04:18:09;;;;;;;11.87;6.77;;;3.80;76.60;;;;;;4990531;28;20308;-68
2021/04/05 04:20:35;;;;;;;14.27;7.43;;;3.80;76.00;;;;;;5002309;28;20195;-68
2021/04/05 04:23:02;;;;;;;9.27;6.73;;;3.80;76.60;;;;;;4986080;28;20223;-68
2021/04/05 04:25:28;;;;;;;15.57;6.27;;;3.80;76.70;;;;;;4992359;28;20224;-68
2021/04/05 04:27:53;;;;;;;10.83;7.50;;;3.80;77.10;;;;;;4991406;28;20193;-67
2021/04/05 04:30:33;;;;;;;13.47;7.43;;;3.80;77.00;;;;;;4979973;28;20601;-68
2021/04/05 04:33:10;;;;;;;11.30;7.77;;;3.80;76.80;;;;;;4990429;28;20286;-67
2021/04/05 04:35:38;;;;;;;12.10;7.10;;;4.00;76.30;;;;;;4991304;28;20192;-67
2021/04/05 04:38:05;;;;;;;10.00;7.23;;;3.80;76.80;;;;;;5003089;28;20409;-68
2021/04/05 04:40:33;;;;;;;10.67;6.87;;;3.80;76.10;;;;;;4990115;28;20207;-67
2021/04/05 04:43:00;;;;;;;8.43;6.63;;;3.90;76.00;;;;;;4989546;28;20748;-68
2021/04/05 04:45:27;;;;;;;12.00;6.00;;;3.90;76.10;;;;;;5005236;28;20238;-67
2021/04/05 04:47:55;;;;;;;12.80;7.63;;;3.90;76.10;;;;;;4991549;28;20191;-67
2021/04/05 04:50:22;;;;;;;9.93;7.23;;;3.80;76.00;;;;;;4990914;28;20195;-70
2021/04/05 04:52:48;;;;;;;12.17;7.60;;;3.80;77.20;;;;;;4990090;28;20191;-68
2021/04/05 04:55:15;;;;;;;10.10;6.33;;;3.70;77.30;;;;;;4993709;28;20536;-68
2021/04/05 04:57:41;;;;;;;10.20;6.23;;;3.70;78.10;;;;;;4994902;28;20286;-68
2021/04/05 05:00:08;;;;;;;10.07;5.70;;;3.70;78.30;;;;;;4986191;28;20275;-68
2021/04/05 05:02:40;;;;;;;8.87;5.50;;;3.80;78.30;;;;;;4992125;28;20592;-68
2021/04/05 05:05:09;;;;;;;10.67;7.47;;;3.80;78.30;;;;;;4986207;28;20219;-68
2021/04/05 05:07:35;;;;;;;18.00;7.67;;;3.80;78.80;;;;;;4979765;28;20648;-68
2021/04/05 05:10:06;;;;;;;11.43;7.77;;;3.80;78.60;;;;;;4991174;28;20632;-68
2021/04/05 05:12:34;;;;;;;8.83;5.73;;;3.80;78.60;;;;;;4995613;28;20193;-68
2021/04/05 05:15:00;;;;;;;7.43;5.80;;;3.90;78.90;;;;;;4998338;28;20902;-68
2021/04/05 05:17:26;;;;;;;10.47;6.93;;;3.90;78.60;;;;;;5003654;28;20202;-68
2021/04/05 05:19:52;;;;;;;11.60;6.30;;;3.90;78.70;;;;;;4993904;28;20280;-68
2021/04/05 05:22:20;;;;;;;9.00;5.90;;;3.90;78.70;;;;;;4988671;28;20210;-68
2021/04/05 05:24:48;;;;;;;12.80;5.07;;;3.90;78.30;;;;;;5004068;28;20274;-68
2021/04/05 05:27:16;;;;;;;9.20;5.57;;;4.00;78.40;;;;;;4986626;28;22171;-68
2021/04/05 05:29:41;;;;;;;9.63;5.93;;;4.00;78.30;;;;;;4989491;28;20230;-68
2021/04/05 05:32:09;;;;;;;9.60;5.70;;;4.00;78.20;;;;;;4974079;28;20189;-68
2021/04/05 05:34:35;;;;;;;10.00;6.83;;;4.10;78.00;;;;;;4995172;28;20192;-68
2021/04/05 05:37:02;;;;;;;9.83;6.33;;;4.10;78.20;;;;;;4993571;28;20353;-68
2021/04/05 05:39:28;;;;;;;11.00;5.53;;;4.20;77.90;;;;;;4984426;28;20196;-68
2021/04/05 05:42:16;;;;;;;8.50;5.67;;;4.30;77.80;;;;;;4992616;28;20207;-68
2021/04/05 05:44:51;;;;;;;8.27;5.47;;;4.30;77.30;;;;;;4993588;28;20219;-68
2021/04/05 05:47:50;;;;;;;9.87;5.47;;;4.40;76.90;;;;;;4993072;28;20662;-67
2021/04/05 05:50:41;;;;;;;3.57;2.50;;;4.50;76.90;;;;;;4988062;28;20189;-68
2021/04/05 05:53:42;;;;;;;6.27;4.87;;;4.60;76.60;;;;;;4972260;28;20208;-68
2021/04/05 05:56:11;;;;;;;13.63;6.07;;;4.70;75.50;;;;;;4985779;28;20219;-67
2021/04/05 05:58:54;;;;;;;10.60;5.53;;;4.80;75.80;;;;;;4986842;28;20211;-68
2021/04/05 06:01:26;;;;;;;7.57;4.83;;;4.90;75.40;;;;;;4973334;28;20212;-68
2021/04/05 06:04:01;;;;;;;3.83;2.33;;;5.00;73.90;;;;;;4975464;28;20326;-68
2021/04/05 06:06:53;;;;;;;11.33;4.23;;;5.10;72.80;;;;;;5007990;28;20192;-68
2021/04/05 06:09:32;;;;;;;4.67;4.00;;;5.30;72.50;;;;;;4987503;28;20250;-68
2021/04/05 06:12:03;;;;;;;9.00;5.43;;;5.40;72.10;;;;;;4974798;28;20220;-68
2021/04/05 06:14:47;;;;;;;8.67;4.73;;;5.50;71.70;;;;;;4998264;28;20607;-67
2021/04/05 06:17:36;;;;;;;5.90;4.60;;;5.50;71.20;;;;;;4987412;28;20273;-66
2021/04/05 06:20:13;;;;;;;9.47;5.13;;;5.60;70.30;;;;;;4982085;28;20227;-66
2021/04/05 06:23:07;;;;;;;5.03;4.13;;;5.80;70.70;;;;;;4983052;28;20279;-66
2021/04/05 06:25:54;;;;;;;3.33;3.00;;;5.70;69.30;;;;;;4980802;28;20255;-67
2021/04/05 06:28:34;;;;;;;7.17;4.33;;;5.80;69.40;;;;;;4984523;28;20323;-67
2021/04/05 06:31:16;;;;;;;6.47;3.63;;;5.80;69.40;;;;;;4984818;28;20284;-67
2021/04/05 06:33:50;;;;;;;10.40;5.47;;;5.90;69.10;;;;;;4992780;28;20202;-65
2021/04/05 06:36:29;;;;;;;13.80;4.80;;;6.00;69.50;;;;;;4978373;28;20188;-66
2021/04/05 06:39:00;;;;;;;13.83;5.30;;;6.10;68.30;;;;;;4978956;28;20251;-66
2021/04/05 06:41:56;;;;;;;6.83;4.37;;;6.20;67.80;;;;;;4977586;28;20188;-65
2021/04/05 06:44:40;;;;;;;1.83;1.73;;;6.20;67.20;;;;;;4987548;28;20231;-66
2021/04/05 06:47:28;;;;;;;6.00;4.53;;;6.30;66.60;;;;;;4976692;28;20192;-63
2021/04/05 06:50:32;;;;;;;6.43;4.93;;;6.30;66.40;;;;;;4994805;28;20576;-67
2021/04/05 06:53:24;;;;;;;5.33;3.83;;;6.40;66.40;;;;;;4978313;28;20200;-68
2021/04/05 06:55:56;;;;;;;9.93;5.83;;;6.50;65.20;;;;;;4978656;28;20212;-69
2021/04/05 06:58:25;;;;;;;4.63;3.17;;;6.60;65.50;;;;;;4994600;28;20224;-69
2021/04/05 07:01:08;;;;;;;12.37;4.73;;;6.60;64.80;;;;;;4997051;28;20188;-69
2021/04/05 07:03:53;;;;;;;10.97;4.73;;;6.60;65.50;;;;;;4995686;28;20291;-68
2021/04/05 07:06:34;;;;;;;8.63;5.50;;;6.60;65.30;;;;;;4997005;28;20291;-68
2021/04/05 07:09:35;;;;;;;7.07;4.67;;;6.60;65.40;;;;;;4998062;28;20196;-68
2021/04/05 07:12:16;;;;;;;3.23;2.47;;;6.60;65.50;;;;;;4986687;28;20214;-68
2021/04/05 07:15:18;;;;;;;8.67;4.83;;;6.60;65.30;;;;;;4996553;28;20552;-68
2021/04/05 07:17:49;;;;;;;9.10;5.47;;;6.60;65.50;;;;;;4995192;28;20220;-67
2021/04/05 07:20:32;;;;;;;7.87;5.47;;;6.60;65.70;;;;;;4996509;28;20504;-68
2021/04/05 07:23:22;;;;;;;8.77;5.07;;;6.70;65.50;;;;;;5015578;28;20188;-68
2021/04/05 07:26:10;;;;;;;6.87;4.53;;;6.80;65.50;;;;;;4990134;28;20356;-68
2021/04/05 07:29:01;;;;;;;10.37;5.00;;;6.90;65.20;;;;;;4993729;28;20189;-68
2021/04/05 07:31:27;;;;;;;6.57;4.90;;;6.90;65.00;;;;;;4978402;28;20192;-68
2021/04/05 07:34:00;;;;;;;10.20;6.43;;;7.00;64.30;;;;;;5001989;28;20199;-68
2021/04/05 07:36:38;;;;;;;13.47;5.67;;;7.00;64.10;;;;;;4997865;28;20645;-66
2021/04/05 07:39:16;;;;;;;15.30;6.63;;;7.10;64.10;;;;;;4996670;28;20228;-66
2021/04/05 07:42:10;;;;;;;9.30;5.63;;;7.10;63.90;;;;;;4999282;28;20188;-66
2021/04/05 07:45:10;;;;;;;10.93;6.30;;;7.20;63.60;;;;;;5006885;28;20262;-66
2021/04/05 07:48:00;;;;;;;8.63;5.23;;;7.20;63.80;;;;;;4998113;28;20718;-66
2021/04/05 07:50:46;;;;;;;7.60;4.97;;;7.30;63.30;;;;;;4970397;28;20277;-66
2021/04/05 07:53:47;;;;;;;11.43;5.60;;;7.30;63.10;;;;;;4998179;28;20199;-66
2021/04/05 07:56:27;;;;;;;7.13;3.27;;;7.20;62.30;;;;;;4999734;28;20630;-66
2021/04/05 07:59:17;;;;;;;8.90;5.63;;;7.30;62.90;;;;;;4988476;28;20236;-66
2021/04/05 08:01:49;;;;;;;9.63;5.70;;;7.40;63.30;;;;;;4964070;28;20201;-66
2021/04/05 08:04:44;;;;;;;11.87;6.83;;;7.50;63.10;;;;;;4967640;28;20251;-66
2021/04/05 08:07:16;;;;;;;2.43;2.23;;;7.50;62.30;;;;;;4946447;28;20304;-66
2021/04/05 08:09:53;;;;;;;10.73;6.20;;;7.60;62.40;;;;;;4972521;28;20187;-66
2021/04/05 08:12:31;;;;;;;10.07;6.07;;;7.50;62.30;;;;;;4995619;28;20215;-66
2021/04/05 08:15:13;;;;;;;7.73;6.10;;;7.50;62.30;;;;;;5001087;28;20192;-66
2021/04/05 08:18:19;;;;;;;10.03;7.00;;;7.50;62.30;;;;;;4964810;28;20204;-66
2021/04/05 08:20:55;;;;;;;13.60;7.00;;;7.50;62.40;;;;;;4966259;28;20207;-66
2021/04/05 08:23:28;;;;;;;4.00;3.33;;;7.50;62.90;;;;;;4967148;28;20223;-67
2021/04/05 08:26:12;;;;;;;10.67;5.67;;;7.50;62.30;;;;;;4965486;28;20881;-66
2021/04/05 08:28:50;;;;;;;15.33;5.93;;;7.50;62.50;;;;;;4967198;28;20661;-66
2021/04/05 08:31:28;;;;;;;6.63;4.93;;;7.50;62.90;;;;;;4963398;28;20196;-67
2021/04/05 08:34:12;;;;;;;12.90;8.20;;;7.50;62.70;;;;;;4964887;28;20200;-67
2021/04/05 08:36:47;;;;;;;7.17;5.77;;;7.50;62.60;;;;;;4965225;28;20216;-71
2021/04/05 08:39:18;;;;;;;6.47;5.00;;;7.50;62.30;;;;;;4959831;28;20290;-67
2021/04/05 08:41:56;;;;;;;6.33;5.50;;;7.60;62.40;;;;;;4966258;28;20330;-68
2021/04/05 08:44:39;;;;;;;13.23;6.63;;;7.60;62.40;;;;;;4965500;28;20257;-67
2021/04/05 08:47:10;;;;;;;7.20;4.60;;;7.60;62.30;;;;;;4965116;28;20201;-67
2021/04/05 08:49:37;;;;;;;8.43;6.10;;;7.60;62.50;;;;;;4964165;28;20637;-67
2021/04/05 08:52:09;;;;;;;10.57;7.07;;;7.70;62.10;;;;;;4964331;28;20196;-67
2021/04/05 08:54:37;;;;;;;4.67;3.80;;;7.70;62.40;;;;;;4974242;28;20254;-67
2021/04/05 08:57:25;;;;;;;9.70;6.40;;;7.80;61.10;;;;;;4994141;28;20208;-68
2021/04/05 09:00:11;;;;;;;8.50;4.97;;;7.90;61.70;;;;;;4996350;28;20773;-64
2021/04/05 09:02:37;;;;;;;13.03;6.70;;;7.90;61.50;;;;;;4977178;28;20212;-63
2021/04/05 09:05:13;;;;;;;10.43;7.33;;;7.90;61.40;;;;;;4982684;28;20220;-66
2021/04/05 09:08:06;;;;;;;6.17;4.33;;;7.80;61.60;;;;;;4990578;28;20196;-66
2021/04/05 09:10:42;;;;;;;7.10;4.60;;;7.80;62.40;;;;;;4989891;28;20188;-70
2021/04/05 09:13:13;;;;;;;13.77;7.67;;;7.80;62.60;;;;;;4994466;28;20218;-68
2021/04/05 09:16:06;;;;;;;14.50;7.77;;;7.90;62.60;;;;;;4982172;28;20647;-68
2021/04/05 09:19:08;;;;;;;12.50;7.40;;;8.00;62.10;;;;;;4994897;28;20200;-68
2021/04/05 09:21:40;;;;;;;8.33;6.30;;;8.00;62.00;;;;;;4992579;28;20195;-68
2021/04/05 09:24:47;;;;;;;7.43;5.80;;;8.10;62.10;;;;;;4994592;28;20229;-68
2021/04/05 09:27:51;;;;;;;9.80;6.03;;;7.90;62.70;;;;;;4994988;28;20211;-68
2021/04/05 09:30:35;;;;;;;7.87;4.77;;;8.00;62.80;;;;;;4991631;28;20551;-67
2021/04/05 09:33:19;;;;;;;9.77;5.40;;;8.00;62.70;;;;;;4990815;28;20189;-67
2021/04/05 09:36:06;;;;;;;10.03;7.13;;;8.20;62.90;;;;;;5004029;28;20354;-68
2021/04/05 09:38:55;;;;;;;7.13;4.70;;;8.10;62.80;;;;;;4994896;28;20192;-64
2021/04/05 09:41:58;;;;;;;11.50;6.73;;;8.10;62.80;;;;;;4988701;28;20208;-70
2021/04/05 09:44:35;;;;;;;12.53;6.50;;;8.20;62.90;;;;;;4991036;28;20246;-69
2021/04/05 09:47:22;;;;;;;6.87;4.93;;;8.20;62.90;;;;;;4986393;28;20592;-68
2021/04/05 09:50:06;;;;;;;11.37;5.27;;;8.20;62.90;;;;;;4988441;28;20340;-69
2021/04/05 09:52:40;;;;;;;7.53;4.27;;;8.20;62.90;;;;;;4989289;28;20662;-68
2021/04/05 09:55:14;;;;;;;7.07;3.57;;;8.20;62.40;;;;;;4993756;28;20215;-68
2021/04/05 09:58:01;;;;;;;13.13;7.17;;;8.20;62.90;;;;;;5008181;28;20477;-74
2021/04/05 10:00:28;;;;;;;8.80;4.73;;;8.20;62.90;;;;;;4972209;28;20211;-69
2021/04/05 10:03:03;;;;;;;9.37;5.80;;;9.30;63.90;;;;;;5004872;28;20216;-75
2021/04/05 10:05:33;;;;;;;7.57;4.13;;;8.20;62.90;;;;;;4977409;28;20318;-74
2021/04/05 10:10:36;;;;;;;12.17;4.87;;;8.20;62.40;;;;;;5521413;23;20281;-73
2021/04/05 10:13:06;;;;;;;5.67;4.60;;;8.10;62.30;;;;;;5235270;23;20235;-74
2021/04/05 10:15:32;;;;;;;8.80;5.37;;;8.00;62.20;;;;;;5037483;23;20251;-73
2021/04/05 10:18:00;;;;;;;7.27;5.50;;;8.10;62.90;;;;;;5275442;23;20244;-73
2021/04/05 10:20:31;;;;;;;4.93;3.83;;;8.10;63.80;;;;;;5378754;22;20241;-75
2021/04/05 10:25:34;;;;;;;3.70;2.90;;;8.10;64.10;;;;;;5335345;23;20243;-74
2021/04/05 10:28:02;;;;;;;3.87;3.53;;;8.10;65.30;;;;;;5009259;28;20184;-74
2021/04/05 10:30:33;;;;;;;8.70;5.03;;;8.00;66.50;;;;;;4987324;28;20298;-75
2021/04/05 10:33:17;;;;;;;5.50;4.97;;;7.90;69.30;;;;;;4977141;28;20191;-75
2021/04/05 10:38:16;;;;;;;4.77;4.30;;;7.80;70.60;;;;;;5115435;23;20654;-73
2021/04/05 10:40:43;;;;;;;8.53;4.53;;;7.70;71.10;;;;;;4946993;28;20204;-73
2021/04/05 10:43:11;;;;;;;4.17;3.77;;;7.90;72.70;;;;;;4932180;28;20194;-73
2021/04/05 10:45:39;;;;;;;4.60;3.60;;;7.60;74.40;;;;;;5320147;23;20263;-74
2021/04/05 10:53:22;;;;;;;13.53;6.63;;;7.50;77.70;;;;;;5895360;23;20279;-74
2021/04/05 10:55:54;;;;;;;6.87;4.17;;;7.40;78.00;;;;;;5406274;23;661517;-72
2021/04/05 10:58:28;;;;;;;5.20;4.73;;;7.40;79.20;;;;;;4986336;28;20631;-70
2021/04/05 11:00:58;;;;;;;8.60;5.00;;;7.30;79.80;;;;;;4996489;28;20194;-69
2021/04/05 11:03:27;;;;;;;15.87;3.57;;;7.30;82.10;;;;;;5004157;28;20195;-69
2021/04/05 11:06:05;;;;;;;3.60;3.30;;;7.20;82.80;;;;;;5014235;28;20334;-69
2021/04/05 11:08:35;;;;;;;5.73;5.13;;;7.10;86.40;;;;;;4988868;28;20197;-69
2021/04/05 11:11:05;;;;;;;4.27;3.87;;;7.10;88.00;;;;;;4988362;28;20203;-70
2021/04/05 11:13:36;;;;;;;5.27;4.43;;;7.00;86.40;;;;;;4993821;28;20292;-69
2021/04/05 11:16:11;;;;;;;6.37;2.63;;;6.90;89.90;;;;;;5007518;28;20272;-70
2021/04/05 11:18:47;;;;;;;6.67;3.97;;;7.00;88.90;;;;;;5011736;28;20202;-69
2021/04/05 11:21:16;;;;;;;8.40;5.57;;;7.00;90.50;;;;;;5008109;28;20871;-69
2021/04/05 11:23:42;;;;;;;4.00;3.57;;;7.00;90.50;;;;;;4991734;28;20195;-69
2021/04/05 11:26:10;;;;;;;5.23;4.37;;;7.00;87.50;;;;;;5009013;28;20875;-69
2021/04/05 11:28:39;;;;;;;5.10;4.33;;;6.90;90.90;;;;;;4994623;28;20814;-69
2021/04/05 11:31:11;;;;;;;3.67;2.20;;;7.00;91.10;;;;;;5007113;28;20319;-69
2021/04/05 11:33:48;;;;;;;5.60;4.47;;;7.00;89.90;;;;;;5009549;28;20221;-69
2021/04/05 11:36:14;;;;;;;7.47;3.50;;;7.00;91.70;;;;;;5008382;28;20249;-68
2021/04/05 11:38:45;;;;;;;4.43;3.90;;;7.00;89.40;;;;;;5008035;28;20196;-68
2021/04/05 11:41:13;;;;;;;5.50;4.10;;;8.70;90.10;;;;;;5001550;28;20196;-69
2021/04/05 11:43:41;;;;;;;4.53;3.37;;;6.80;89.50;;;;;;5008549;28;20278;-69
2021/04/05 11:46:10;;;;;;;7.03;4.43;;;6.80;91.50;;;;;;4999138;28;20552;-64
2021/04/05 11:48:36;;;;;;;4.77;3.50;;;6.80;90.60;;;;;;4998613;28;20214;-64
2021/04/05 11:51:02;;;;;;;6.93;3.57;;;6.80;90.00;;;;;;5005949;28;20187;-63
2021/04/05 11:53:34;;;;;;;3.83;3.37;;;6.80;88.30;;;;;;4993825;28;20619;-63
2021/04/05 11:56:30;;;;;;;4.37;3.10;;;6.80;86.20;;;;;;5007942;28;20214;-70
2021/04/05 11:59:08;;;;;;;2.67;2.47;;;6.90;88.30;;;;;;4990322;28;20306;-75
2021/04/05 12:01:53;;;;;;;3.67;2.67;;;6.90;82.10;;;;;;5008565;28;20195;-66
2021/04/05 12:04:24;;;;;;;2.47;2.00;;;6.90;77.50;;;;;;4986512;28;20233;-67
2021/04/05 12:07:05;;;;;;;2.20;2.00;;;6.90;77.50;;;;;;5005885;28;20191;-63
2021/04/05 12:09:54;;;;;;;3.23;1.90;;;6.90;75.70;;;;;;5008094;28;20187;-62
2021/04/05 12:12:34;;;;;;;1.60;1.50;;;6.80;75.10;;;;;;4990562;28;20663;-64
2021/04/05 12:15:01;;;;;;;1.10;1.10;;;6.60;73.90;;;;;;5002688;28;20198;-70
2021/04/05 12:17:28;;;;;;;1.00;1.00;;;6.50;73.00;;;;;;4987206;28;20846;-71
2021/04/05 12:19:56;;;;;;;1.10;1.10;;;6.40;74.60;;;;;;4979774;28;20198;-69
2021/04/05 12:22:29;;;;;;;0.70;0.70;;;6.40;74.20;;;;;;4995549;28;20195;-71
2021/04/05 12:24:57;;;;;;;1.20;1.20;;;6.40;75.30;;;;;;4999362;28;20219;-71
2021/04/05 12:27:32;;;;;;;1.13;1.13;;;6.30;76.00;;;;;;4977148;28;20577;-71
2021/04/05 12:30:05;;;;;;;1.80;1.70;;;6.20;80.10;;;;;;4994237;28;20198;-71
2021/04/05 12:32:31;;;;;;;0.93;0.93;;;6.00;79.40;;;;;;4973659;28;20780;-70
2021/04/05 12:35:00;;;;;;;1.20;1.20;;;5.80;75.90;;;;;;4981346;28;20199;-70
2021/04/05 12:37:28;;;;;;;0.83;0.83;;;5.80;77.80;;;;;;5000008;28;20224;-71
2021/04/05 12:39:58;;;;;;;1.20;1.20;;;5.70;72.20;;;;;;4981744;28;20202;-71
2021/04/05 12:42:29;;;;;;;1.17;1.17;;;5.70;71.90;;;;;;4979964;28;20203;-70
2021/04/05 12:44:57;;;;;;;0.90;0.90;;;5.60;69.20;;;;;;4981562;28;21202;-71
2021/04/05 12:47:34;;;;;;;1.43;1.33;;;5.60;69.70;;;;;;4996370;28;20229;-71
2021/04/05 12:50:08;;;;;;;1.80;1.33;;;5.20;64.40;;;;;;4970844;23;20707;-73
2021/04/05 12:52:37;;;;;;;1.00;1.00;;;5.20;66.70;;;;;;4960582;28;20235;-73
2021/04/05 12:55:15;;;;;;;1.80;1.10;;;5.00;64.90;;;;;;4953869;28;20217;-70
2021/04/05 12:57:40;;;;;;;1.13;1.13;;;4.90;66.00;;;;;;4969222;23;20269;-70
2021/04/05 13:00:22;;;;;;;1.00;1.00;;;4.90;67.70;;;;;;4995570;28;20620;-70
2021/04/05 13:03:19;;;;;;;1.00;1.00;;;4.90;68.60;;;;;;5023902;28;20268;-73
2021/04/05 13:06:02;;;;;;;1.17;1.17;;;4.90;67.30;;;;;;5009836;28;20237;-71
2021/04/05 13:08:57;;;;;;;1.10;1.00;;;4.90;68.20;;;;;;5008160;28;20249;-72
2021/04/05 13:11:36;;;;;;;1.10;1.10;;;4.90;67.60;;;;;;5022922;28;20275;-71
2021/04/05 13:14:11;;;;;;;1.10;1.00;;;4.90;67.70;;;;;;5001544;28;20198;-72
2021/04/05 13:16:53;;;;;;;1.00;1.00;;;5.10;66.20;;;;;;4999808;28;20266;-72
2021/04/05 13:19:25;;;;;;;1.10;1.10;;;5.20;65.80;;;;;;5017364;28;20611;-71
2021/04/05 13:21:51;;;;;;;0.70;0.70;;;5.20;64.80;;;;;;5023988;28;20223;-70
2021/04/05 13:24:28;;;;;;;1.57;0.93;;;5.30;61.50;;;;;;5017063;28;20715;-71
2021/04/05 13:26:57;;;;;;;1.40;1.40;;;7.50;60.70;;;;;;4997405;28;20195;-70
2021/04/05 13:29:25;;;;;;;2.73;1.10;;;5.30;58.00;;;;;;5022318;28;20194;-70
2021/04/05 13:31:53;;;;;;;1.40;1.03;;;5.20;59.70;;;;;;5021198;28;20217;-70
2021/04/05 13:34:32;;;;;;;1.77;1.10;;;5.20;60.20;;;;;;5019916;28;20286;-70
2021/04/05 13:37:04;;;;;;;1.37;1.20;;;5.00;61.10;;;;;;4995066;28;20208;-70
2021/04/05 13:39:31;;;;;;;1.43;1.33;;;5.00;61.40;;;;;;5011029;28;20381;-71
2021/04/05 13:42:22;;;;;;;1.57;1.47;;;5.10;61.90;;;;;;5017080;28;20188;-70